Time;durP1;ratioP1;P1;durP2;ratioP2;P2;SDS_P1;SDS_P2;PMS_P1;PMS_P2;Temp;Humidity;BMP_temperature;BMP_pressure;BME280_temperature;BME280_humidity;BME280_pressure;Samples;Min_cycle;Max_cycle;Signal;HPM_P1;HPM_P2
2022/06/06 00:00:53;;;;;;;3.60;3.30;;;;;;;17.45;95.85;100510.97;5007229;28;20254;-86
2022/06/06 00:03:21;;;;;;;2.85;2.65;;;;;;;17.49;92.83;100509.91;5014535;28;20060;-87
2022/06/06 00:05:49;;;;;;;2.70;2.55;;;;;;;17.47;92.41;100525.00;5026253;28;20044;-87
2022/06/06 00:08:17;;;;;;;2.35;2.25;;;;;;;17.43;92.73;100520.75;5036409;28;20358;-87
2022/06/06 00:10:46;;;;;;;2.92;2.60;;;;;;;17.31;94.00;100522.13;5017542;28;20057;-87
2022/06/06 00:13:16;;;;;;;2.75;2.65;;;;;;;17.19;95.02;100517.28;5021218;28;20061;-89
2022/06/06 00:15:42;;;;;;;2.70;2.60;;;;;;;17.07;96.66;100531.00;5034757;28;20057;-89
2022/06/06 00:18:09;;;;;;;2.83;2.63;;;;;;;16.99;97.44;100526.84;5045977;28;20064;-88
2022/06/06 00:20:36;;;;;;;2.63;2.53;;;;;;;16.93;97.97;100532.34;5021486;28;20071;-87
2022/06/06 00:23:03;;;;;;;2.92;2.72;;;;;;;16.91;98.19;100528.94;5035269;28;20046;-88
2022/06/06 00:25:30;;;;;;;3.40;3.20;;;;;;;16.83;99.25;100517.72;5018592;28;20088;-87
2022/06/06 00:27:57;;;;;;;2.70;2.55;;;;;;;16.78;99.63;100531.13;5017326;28;20037;-87
2022/06/06 00:30:23;;;;;;;2.75;2.65;;;;;;;16.75;100.00;100522.44;5034233;28;20057;-88
2022/06/06 00:35:34;;;;;;;3.90;3.60;;;;;;;16.65;100.00;100514.00;5024650;28;20042;-87
2022/06/06 00:38:01;;;;;;;3.47;2.95;;;;;;;16.65;100.00;100514.00;5009786;28;20060;-88
2022/06/06 00:40:30;;;;;;;3.53;3.28;;;;;;;16.63;100.00;100514.03;5014466;28;20057;-87
2022/06/06 00:42:57;;;;;;;3.97;3.78;;;;;;;16.63;100.00;100510.53;5024834;28;20076;-87
2022/06/06 00:45:26;;;;;;;3.35;3.05;;;;;;;16.63;100.00;100507.91;5009972;28;20045;-89
2022/06/06 00:48:26;;;;;;;3.90;3.60;;;;;;;16.62;100.00;100507.03;5019628;28;20407;-87
2022/06/06 00:51:09;;;;;;;3.92;3.63;;;;;;;16.60;100.00;100510.66;5015009;28;20061;-87
2022/06/06 00:53:42;;;;;;;4.07;3.60;;;;;;;16.60;100.00;100518.59;5029945;28;20045;-86
2022/06/06 00:56:21;;;;;;;3.40;3.20;;;;;;;16.58;100.00;100515.13;5012193;28;20041;-88
2022/06/06 00:58:54;;;;;;;3.75;3.45;;;;;;;16.57;99.79;100510.75;5005900;28;20054;-86
2022/06/06 01:01:23;;;;;;;4.45;4.07;;;;;;;16.54;99.57;100511.72;5011921;28;20046;-87
2022/06/06 01:03:50;;;;;;;4.00;3.70;;;;;;;16.51;99.38;100511.84;5009491;28;20100;-89
2022/06/06 01:06:20;;;;;;;4.28;3.80;;;;;;;16.45;99.21;100510.31;5025220;28;20076;-87
2022/06/06 01:08:50;;;;;;;3.33;3.13;;;;;;;16.47;97.29;100503.16;5037907;28;20049;-90
2022/06/06 01:11:17;;;;;;;5.10;3.60;;;;;;;16.47;96.34;100512.88;5010708;28;20046;-86
2022/06/06 01:13:46;;;;;;;4.15;3.75;;;;;;;16.50;95.96;100505.72;5023131;28;20049;-87
2022/06/06 01:16:27;;;;;;;3.95;3.65;;;;;;;16.58;95.68;100507.19;5030433;28;20160;-87
2022/06/06 01:19:07;;;;;;;4.60;4.10;;;;;;;16.68;94.00;100504.16;5020473;28;20091;-88
2022/06/06 01:22:11;;;;;;;4.28;3.97;;;;;;;16.72;93.81;100509.34;5041993;28;20045;-87
2022/06/06 01:25:09;;;;;;;4.63;4.22;;;;;;;16.72;93.76;100512.84;5028700;28;20072;-87
2022/06/06 01:28:30;;;;;;;4.75;4.45;;;;;;;16.75;93.48;100518.03;5033428;28;20385;-86
2022/06/06 01:31:02;;;;;;;4.35;3.97;;;;;;;16.79;93.37;100519.63;5006929;28;20544;-88
2022/06/06 01:33:28;;;;;;;5.07;4.47;;;;;;;16.84;92.72;100524.75;5005556;28;20096;-87
2022/06/06 01:36:02;;;;;;;4.38;4.07;;;;;;;16.87;92.57;100525.50;5006929;28;20060;-87
2022/06/06 01:38:28;;;;;;;;;;;;;;;16.87;92.40;100522.84;5000005;28;20269;-88
2022/06/06 01:41:11;;;;;;;3.90;3.60;;;;;;;16.90;92.48;100531.59;5010027;28;20741;-88
2022/06/06 01:43:45;;;;;;;3.70;3.40;;;;;;;16.92;92.37;100527.13;5022535;28;20077;-88
2022/06/06 01:46:23;;;;;;;3.92;3.63;;;;;;;16.94;91.94;100528.78;5021084;28;20077;-89
2022/06/06 01:48:51;;;;;;;4.75;4.22;;;;;;;16.94;91.82;100526.16;5015254;28;20053;-87
2022/06/06 01:51:27;;;;;;;4.65;4.25;;;;;;;16.95;92.08;100527.03;5024870;28;20237;-87
2022/06/06 01:53:54;;;;;;;4.43;4.13;;;;;;;16.96;91.68;100528.75;5025846;28;20096;-88
2022/06/06 01:56:29;;;;;;;6.00;5.32;;;;;;;16.96;91.36;100528.75;5021701;28;20052;-87
2022/06/06 01:58:57;;;;;;;5.20;4.80;;;;;;;16.96;91.16;100526.09;5011071;28;20091;-88
2022/06/06 02:01:25;;;;;;;6.18;5.68;;;;;;;16.93;91.39;100527.06;5010938;28;20440;-87
2022/06/06 02:03:53;;;;;;;6.32;5.65;;;;;;;16.94;91.48;100522.66;5021317;28;20042;-87
2022/06/06 02:06:20;;;;;;;7.47;6.80;;;;;;;16.93;91.27;100510.34;5025594;28;20045;-87
2022/06/06 02:08:47;;;;;;;6.93;6.32;;;;;;;16.93;91.30;100528.88;5020052;28;20056;-89
2022/06/06 02:11:14;;;;;;;7.43;6.88;;;;;;;16.91;91.39;100528.03;5004841;28;20104;-88
2022/06/06 02:13:41;;;;;;;9.77;6.88;;;;;;;16.91;91.09;100531.56;5005561;28;20592;-87
2022/06/06 02:16:07;;;;;;;7.63;6.88;;;;;;;16.90;91.42;100526.31;5012159;28;20486;-87
2022/06/06 02:18:34;;;;;;;8.93;8.10;;;;;;;16.92;91.33;100527.13;5002838;28;20072;-87
2022/06/06 02:21:02;;;;;;;9.18;8.27;;;;;;;16.94;91.09;100530.59;5007793;28;20056;-87
2022/06/06 02:23:29;;;;;;;10.05;8.18;;;;;;;16.95;90.93;100527.03;5006192;28;20077;-87
2022/06/06 02:25:56;;;;;;;10.82;8.07;;;;;;;16.96;90.84;100531.38;5021583;28;20049;-88
2022/06/06 02:28:24;;;;;;;11.50;10.30;;;;;;;16.97;90.54;100523.41;5002686;28;20049;-87
2022/06/06 02:30:51;;;;;;;11.90;10.73;;;;;;;16.96;90.44;100520.81;5025195;28;20128;-87
2022/06/06 02:33:18;;;;;;;13.90;10.27;;;;;;;16.94;90.88;100526.16;5025563;28;20176;-87
2022/06/06 02:35:45;;;;;;;17.08;11.98;;;;;;;16.94;90.71;100517.38;5025157;28;20474;-87
2022/06/06 02:38:13;;;;;;;14.88;12.13;;;;;;;16.93;91.37;100521.78;5006639;28;20050;-87
2022/06/06 02:40:44;;;;;;;14.68;12.23;;;;;;;16.93;91.29;100526.22;5011528;28;20065;-88
2022/06/06 02:43:10;;;;;;;14.65;12.63;;;;;;;16.87;92.00;100520.22;5007944;28;20053;-87
2022/06/06 02:45:37;;;;;;;16.88;12.40;;;;;;;16.83;92.56;100518.59;5012446;28;20053;-88
2022/06/06 02:48:04;;;;;;;16.40;13.13;;;;;;;16.82;92.62;100522.16;5010546;28;20049;-87
2022/06/06 02:50:32;;;;;;;14.77;11.63;;;;;;;16.80;93.07;100520.50;5026971;28;20041;-87
2022/06/06 02:53:00;;;;;;;15.85;13.15;;;;;;;16.73;93.41;100519.84;5022820;28;20049;-88
2022/06/06 02:55:28;;;;;;;15.68;13.25;;;;;;;16.68;93.60;100516.53;5022777;28;20143;-87
2022/06/06 02:57:55;;;;;;;14.82;13.18;;;;;;;16.63;94.33;100529.03;5035983;28;20068;-87
2022/06/06 03:00:28;;;;;;;17.98;14.35;;;;;;;16.64;94.62;100530.78;5024513;28;20050;-87
2022/06/06 03:02:55;;;;;;;17.98;13.95;;;;;;;16.64;94.80;100523.69;4995780;28;20087;-88
2022/06/06 03:05:22;;;;;;;19.77;15.05;;;;;;;16.66;94.86;100527.16;5038200;28;20045;-87
2022/06/06 03:08:25;;;;;;;18.73;14.93;;;;;;;16.70;94.86;100528.75;5018516;28;20049;-88
2022/06/06 03:11:15;;;;;;;16.38;14.65;;;;;;;16.76;94.53;100535.59;5036880;28;20050;-87
2022/06/06 03:14:16;;;;;;;18.30;13.95;;;;;;;16.81;94.06;100530.16;5033982;28;20462;-87
2022/06/06 03:23:21;;;;;;;14.82;12.57;;;;;;;16.76;94.43;100535.59;5023393;28;20038;-88
2022/06/06 03:26:48;;;;;;;14.68;13.15;;;;;;;16.78;94.44;100541.69;5036060;28;20073;-88
2022/06/06 03:29:33;;;;;;;16.77;13.15;;;;;;;16.80;94.50;100541.63;5024584;28;20045;-88
2022/06/06 03:32:18;;;;;;;15.32;12.60;;;;;;;16.81;94.37;100554.78;5036986;28;20353;-86
2022/06/06 03:34:59;;;;;;;14.80;11.88;;;;;;;16.85;93.99;100542.34;5025164;28;20049;-87
2022/06/06 03:37:47;;;;;;;12.57;11.27;;;;;;;16.86;93.86;100547.56;5022748;28;20053;-87
2022/06/06 03:40:36;;;;;;;14.27;11.52;;;;;;;16.87;93.84;100548.44;5015028;28;20104;-87
2022/06/06 03:43:48;;;;;;;13.13;11.73;;;;;;;16.87;93.70;100551.94;5031083;28;20041;-87
2022/06/06 03:46:56;;;;;;;14.20;10.35;;;;;;;16.93;93.07;100550.00;5031569;28;20492;-86
2022/06/06 03:49:48;;;;;;;14.07;11.55;;;;;;;16.95;93.04;100556.13;5046163;28;20038;-87
2022/06/06 03:52:25;;;;;;;14.07;11.50;;;;;;;16.99;92.29;100560.38;5031984;28;20033;-88
2022/06/06 03:55:08;;;;;;;13.93;11.90;;;;;;;17.01;92.03;100551.47;5009347;28;20053;-87
2022/06/06 03:57:36;;;;;;;14.30;11.80;;;;;;;17.02;91.39;100558.44;5032655;28;20932;-87
2022/06/06 04:00:12;;;;;;;12.65;11.25;;;;;;;17.05;91.26;100564.56;5013333;28;20060;-87
2022/06/06 04:02:42;;;;;;;14.90;11.07;;;;;;;17.06;90.75;100561.84;5029405;28;20046;-86
2022/06/06 04:05:17;;;;;;;13.63;11.10;;;;;;;17.04;90.30;100569.00;5044152;28;20056;-88
2022/06/06 04:07:44;;;;;;;16.60;12.90;;;;;;;17.07;89.29;100570.66;5025292;28;20144;-87
2022/06/06 04:10:14;;;;;;;15.98;13.07;;;;;;;17.02;89.46;100574.31;5030250;28;20699;-88
2022/06/06 04:12:58;;;;;;;16.23;12.75;;;;;;;17.02;89.46;100574.31;5012796;28;20492;-88
2022/06/06 04:16:04;;;;;;;15.88;12.82;;;;;;;16.99;89.49;100577.09;5047724;28;20050;-87
2022/06/06 04:18:47;;;;;;;15.77;13.60;;;;;;;16.99;89.11;100579.72;5015638;28;20079;-86
2022/06/06 04:21:45;;;;;;;17.38;13.63;;;;;;;17.02;88.72;100578.75;5027289;28;20523;-86
2022/06/06 04:24:53;;;;;;;20.83;14.88;;;;;;;17.03;87.91;100589.28;5023772;28;20570;-87
2022/06/06 04:27:39;;;;;;;22.92;13.73;;;;;;;17.00;88.36;100599.09;5033613;28;20069;-88
2022/06/06 04:30:21;;;;;;;19.42;15.90;;;;;;;17.02;87.53;100594.63;5055357;28;20026;-88
2022/06/06 04:33:16;;;;;;;19.98;14.80;;;;;;;16.94;88.66;100604.63;5024090;28;20153;-87
2022/06/06 04:35:54;;;;;;;21.15;14.80;;;;;;;16.93;87.95;100609.03;5045258;28;20260;-88
2022/06/06 04:39:03;;;;;;;18.02;13.73;;;;;;;16.91;88.64;100608.25;5017557;28;20123;-87
2022/06/06 04:41:51;;;;;;;21.13;15.30;;;;;;;16.97;85.10;100609.78;5030440;28;20044;-87
2022/06/06 04:44:32;;;;;;;21.05;15.18;;;;;;;16.91;84.13;100605.59;5031381;28;20041;-86
2022/06/06 04:47:36;;;;;;;20.45;13.52;;;;;;;16.86;84.42;100620.72;5028063;28;20140;-88
2022/06/06 04:50:10;;;;;;;19.90;14.80;;;;;;;16.81;82.69;100610.31;5027533;28;20047;-86
2022/06/06 04:52:47;;;;;;;16.85;12.75;;;;;;;16.78;82.81;100617.47;5027837;28;20157;-86
2022/06/06 04:55:17;;;;;;;23.60;13.10;;;;;;;16.79;82.63;100621.84;5025253;28;20332;-87
2022/06/06 04:57:49;;;;;;;19.17;12.73;;;;;;;16.81;82.06;100620.88;5044898;28;20152;-86
2022/06/06 05:00:16;;;;;;;16.88;13.10;;;;;;;16.81;81.71;100617.38;5029022;28;20056;-87
2022/06/06 05:02:43;;;;;;;20.17;13.75;;;;;;;16.82;81.46;100619.13;5028422;28;20069;-87
2022/06/06 05:05:14;;;;;;;19.38;12.60;;;;;;;16.80;81.37;100621.78;5025453;28;20522;-87
2022/06/06 05:08:14;;;;;;;19.33;12.15;;;;;;;16.88;79.53;100613.59;5025870;28;20400;-87
2022/06/06 05:10:56;;;;;;;18.60;12.55;;;;;;;16.85;79.44;100611.06;5024107;28;20138;-86
2022/06/06 05:14:00;;;;;;;16.90;11.50;;;;;;;16.68;80.71;100609.88;5028048;28;20128;-86
2022/06/06 05:16:47;;;;;;;18.53;11.83;;;;;;;16.50;82.32;100621.97;5028006;28;20124;-86
2022/06/06 05:19:45;;;;;;;20.33;13.13;;;;;;;16.39;83.38;100621.47;5041686;28;20053;-88
2022/06/06 05:22:55;;;;;;;15.55;10.25;;;;;;;16.31;83.26;100607.63;5023302;28;20048;-88
2022/06/06 05:25:39;;;;;;;18.42;11.48;;;;;;;16.27;83.33;100627.13;5022517;28;20052;-87
2022/06/06 05:29:07;;;;;;;17.75;11.15;;;;;;;16.22;84.44;100624.66;5042358;28;20503;-86
2022/06/06 05:31:44;;;;;;;17.02;11.48;;;;;;;16.30;82.62;100630.56;5000001;28;20041;-88
2022/06/06 05:34:24;;;;;;;14.88;10.82;;;;;;;16.32;82.73;100630.50;5023954;28;20152;-87
2022/06/06 05:37:20;;;;;;;18.80;12.02;;;;;;;16.34;83.36;100626.88;5025229;28;20051;-87
2022/06/06 05:40:18;;;;;;;14.43;10.73;;;;;;;16.38;83.52;100652.28;5018950;28;20061;-87
2022/06/06 05:43:12;;;;;;;18.77;11.75;;;;;;;16.51;82.76;100654.53;5026943;28;20041;-86
2022/06/06 05:45:56;;;;;;;14.48;10.10;;;;;;;16.68;81.29;100661.88;5026310;28;20117;-87
2022/06/06 05:48:41;;;;;;;11.88;8.98;;;;;;;16.82;79.88;100650.84;5008783;28;20543;-86
2022/06/06 05:51:28;;;;;;;12.68;9.02;;;;;;;17.10;77.79;100653.38;5025372;28;20400;-86
2022/06/06 05:54:15;;;;;;;11.82;8.85;;;;;;;17.31;76.34;100653.53;5005225;28;20073;-87
2022/06/06 05:57:21;;;;;;;11.25;8.77;;;;;;;17.34;76.38;100661.38;5022537;28;20245;-86
2022/06/06 06:00:05;;;;;;;14.77;10.00;;;;;;;17.38;75.86;100678.84;5014204;28;20041;-87
2022/06/06 06:02:58;;;;;;;12.43;9.30;;;;;;;17.24;76.43;100675.84;5020895;28;20339;-88
2022/06/06 06:05:48;;;;;;;15.98;9.60;;;;;;;17.21;76.92;100674.19;5022403;28;20113;-88
2022/06/06 06:08:25;;;;;;;14.55;8.38;;;;;;;17.25;76.68;100683.72;5004105;28;20053;-88
2022/06/06 06:11:33;;;;;;;15.20;9.70;;;;;;;17.21;77.31;100682.09;5025294;28;20053;-86
2022/06/06 06:14:16;;;;;;;12.27;8.57;;;;;;;17.26;77.76;100689.84;5010882;28;20045;-85
2022/06/06 06:16:50;;;;;;;12.30;9.32;;;;;;;17.35;77.43;100686.88;5008968;28;20100;-87
2022/06/06 06:19:21;;;;;;;16.00;10.45;;;;;;;17.45;76.68;100692.72;5025664;28;20037;-87
2022/06/06 06:21:55;;;;;;;13.13;10.15;;;;;;;17.54;76.64;100689.72;5010764;28;20045;-87
2022/06/06 06:24:39;;;;;;;16.85;12.55;;;;;;;17.55;75.89;100699.38;5008835;28;20049;-86
2022/06/06 06:27:06;;;;;;;;;;;;;;;17.62;76.07;100695.56;5001187;28;20963;-86
2022/06/06 06:29:35;;;;;;;19.02;14.45;;;;;;;17.71;75.41;100696.16;5036459;28;19925;-88
2022/06/06 06:32:51;;;;;;;18.58;13.90;;;;;;;17.63;75.67;100693.81;5010603;28;20488;-87
2022/06/06 06:35:35;;;;;;;15.60;13.10;;;;;;;17.68;76.44;100695.34;5014605;28;20052;-87
2022/06/06 06:38:49;;;;;;;16.33;13.23;;;;;;;17.88;75.75;100691.06;5007177;28;20224;-87
2022/06/06 06:42:00;;;;;;;20.15;14.15;;;;;;;18.07;74.51;100699.22;5026419;28;20476;-87
2022/06/06 06:44:34;;;;;;;17.33;14.00;;;;;;;18.26;73.56;100709.06;5019435;28;20492;-84
2022/06/06 06:47:18;;;;;;;20.90;13.57;;;;;;;18.45;72.85;100706.53;5000836;28;20193;-84
2022/06/06 06:49:51;;;;;;;16.02;13.30;;;;;;;18.65;70.60;100708.34;5020832;28;20041;-84
2022/06/06 06:52:59;;;;;;;16.80;12.63;;;;;;;18.76;69.38;100706.13;5003653;28;20064;-84
2022/06/06 06:55:47;;;;;;;15.48;11.93;;;;;;;18.51;70.27;100716.88;5018294;28;20088;-83
2022/06/06 06:58:48;;;;;;;19.67;12.50;;;;;;;18.33;71.80;100722.00;5005316;28;20484;-85
2022/06/06 07:01:40;;;;;;;14.95;11.95;;;;;;;18.12;71.88;100730.78;5024307;28;20095;-83
2022/06/06 07:11:17;;;;;;;14.18;9.48;;;;;;;17.66;72.77;100742.22;5005976;28;20128;-84
2022/06/06 07:14:14;;;;;;;13.27;10.35;;;;;;;17.70;72.61;100742.94;4980698;28;20055;-83
2022/06/06 07:16:41;;;;;;;13.25;8.73;;;;;;;17.95;72.26;100736.75;5018277;28;20599;-84
2022/06/06 07:19:16;;;;;;;9.65;8.45;;;;;;;18.37;70.47;100738.66;5020910;28;20245;-84
2022/06/06 07:21:47;;;;;;;13.43;10.43;;;;;;;18.74;69.22;100723.88;5019088;28;20095;-83
2022/06/06 07:24:23;;;;;;;10.75;9.15;;;;;;;19.19;66.86;100724.66;5026201;28;20506;-83
2022/06/06 07:26:53;;;;;;;11.20;9.05;;;;;;;19.50;65.16;100718.84;5020617;28;20052;-85
2022/06/06 07:29:21;;;;;;;11.45;7.97;;;;;;;19.29;65.69;100720.66;5006726;28;20186;-84
2022/06/06 07:32:16;;;;;;;10.65;8.35;;;;;;;19.20;64.74;100715.75;5024487;28;20112;-82
2022/06/06 07:35:17;;;;;;;8.75;7.55;;;;;;;19.22;65.13;100716.56;5033065;28;20042;-80
2022/06/06 07:38:05;;;;;;;10.77;8.55;;;;;;;19.36;65.23;100701.81;5003158;28;20139;-83
2022/06/06 07:41:12;;;;;;;8.32;7.15;;;;;;;20.19;62.04;100697.97;5035345;28;20127;-81
2022/06/06 07:44:12;;;;;;;7.90;7.05;;;;;;;20.88;59.09;100696.34;5033750;28;20041;-83
2022/06/06 07:47:12;;;;;;;8.60;7.57;;;;;;;21.32;58.01;100709.13;5035659;28;20049;-83
2022/06/06 07:49:47;;;;;;;8.75;7.85;;;;;;;22.08;56.78;100706.84;5017934;28;20517;-82
2022/06/06 07:52:30;;;;;;;9.95;8.38;;;;;;;22.83;53.85;100703.44;5003067;28;20466;-80
2022/06/06 07:55:15;;;;;;;8.55;7.70;;;;;;;23.22;51.77;100702.03;5004304;28;20116;-81
2022/06/06 07:58:05;;;;;;;7.95;7.20;;;;;;;23.08;52.87;100716.19;5015092;28;20053;-83
2022/06/06 08:00:33;;;;;;;8.75;7.90;;;;;;;22.81;52.10;100711.56;5023780;28;20077;-83
2022/06/06 08:03:20;;;;;;;9.68;7.43;;;;;;;22.79;52.59;100702.81;5004295;28;20059;-83
2022/06/06 08:06:09;;;;;;;10.25;7.60;;;;;;;23.12;51.47;100715.91;5020315;28;20112;-83
2022/06/06 08:09:07;;;;;;;8.48;7.65;;;;;;;23.24;49.98;100716.16;5014517;28;20045;-83
2022/06/06 08:12:13;;;;;;;8.00;7.20;;;;;;;23.28;50.39;100710.53;5004310;28;20107;-83
2022/06/06 08:15:13;;;;;;;7.45;6.85;;;;;;;22.30;52.17;100717.16;5004082;28;20104;-84
2022/06/06 08:18:12;;;;;;;8.18;6.78;;;;;;;21.74;54.11;100711.41;5012830;28;20198;-82
2022/06/06 08:21:16;;;;;;;12.20;7.40;;;;;;;21.92;54.25;100721.03;5015831;28;20053;-82
2022/06/06 08:23:44;;;;;;;7.63;6.93;;;;;;;21.80;54.13;100713.72;5042102;28;20080;-80
2022/06/06 08:26:11;;;;;;;8.90;6.78;;;;;;;21.80;54.07;100716.41;5027896;28;20076;-83
2022/06/06 08:28:42;;;;;;;8.13;6.85;;;;;;;22.77;51.94;100718.88;5025535;28;20049;-81
2022/06/06 08:31:10;;;;;;;6.65;5.70;;;;;;;23.90;48.95;100713.88;5009710;28;20076;-81
2022/06/06 08:33:36;;;;;;;5.70;5.20;;;;;;;24.27;47.14;100723.03;5008327;28;20045;-82
2022/06/06 08:36:59;;;;;;;6.20;5.57;;;;;;;24.36;46.28;100721.56;5029841;28;20041;-84
2022/06/06 08:40:01;;;;;;;5.45;4.90;;;;;;;24.08;47.56;100717.19;5018176;28;20054;-81
2022/06/06 08:43:05;;;;;;;6.15;5.55;;;;;;;23.65;48.12;100714.53;5009140;28;20050;-82
2022/06/06 08:46:02;;;;;;;5.93;5.40;;;;;;;23.41;49.28;100707.09;4982669;28;20037;-82
2022/06/06 08:48:43;;;;;;;5.18;4.68;;;;;;;23.15;49.34;100714.91;5022871;28;20073;-82
2022/06/06 08:51:39;;;;;;;4.78;4.28;;;;;;;23.32;49.21;100708.50;5009560;28;20056;-83
2022/06/06 08:54:59;;;;;;;4.55;4.15;;;;;;;23.61;48.63;100704.03;5018360;28;20065;-84
2022/06/06 08:58:17;;;;;;;4.53;4.13;;;;;;;24.26;46.68;100710.63;5021661;28;20146;-83
2022/06/06 09:01:00;;;;;;;4.28;3.97;;;;;;;24.39;46.84;100715.16;5021361;28;20706;-83
2022/06/06 09:04:14;;;;;;;4.18;3.65;;;;;;;23.75;46.48;100713.00;5022844;28;20053;-81
2022/06/06 09:07:35;;;;;;;3.80;3.47;;;;;;;22.41;49.54;100711.22;5023309;28;20286;-83
2022/06/06 09:10:46;;;;;;;3.58;3.28;;;;;;;21.93;51.55;100709.44;5040171;28;20119;-82
2022/06/06 09:13:53;;;;;;;4.68;3.50;;;;;;;22.69;49.95;100701.63;5006264;28;20455;-82
2022/06/06 09:17:00;;;;;;;2.75;2.55;;;;;;;22.48;48.64;100707.25;5019380;28;20056;-81
2022/06/06 09:19:42;;;;;;;3.60;2.38;;;;;;;22.62;48.41;100715.31;5038806;28;20084;-82
2022/06/06 09:23:02;;;;;;;2.83;2.63;;;;;;;23.94;45.31;100707.38;5038833;28;20810;-82
2022/06/06 09:26:00;;;;;;;3.13;2.58;;;;;;;25.38;41.65;100687.06;5039579;28;20045;-82
2022/06/06 09:29:04;;;;;;;2.40;2.20;;;;;;;25.46;41.40;100691.88;5007599;28;20384;-82
2022/06/06 09:32:21;;;;;;;2.67;2.10;;;;;;;26.86;38.44;100692.31;5019658;28;20432;-83
2022/06/06 09:35:19;;;;;;;2.45;2.28;;;;;;;27.83;38.00;100693.72;5020366;28;20366;-84
2022/06/06 09:38:15;;;;;;;2.20;2.10;;;;;;;28.12;36.16;100693.19;5018079;28;20050;-81
2022/06/06 09:41:24;;;;;;;1.92;1.73;;;;;;;27.65;37.17;100704.13;5024000;28;20417;-82
2022/06/06 09:44:11;;;;;;;3.40;2.50;;;;;;;27.30;38.14;100705.94;5021112;28;20360;-83
2022/06/06 09:47:15;;;;;;;2.30;2.20;;;;;;;26.76;37.69;100709.25;5038346;28;20049;-81
2022/06/06 09:50:06;;;;;;;;;;;;;;;26.40;37.95;100703.84;5023068;28;20042;-82
2022/06/06 09:53:27;;;;;;;1.95;1.52;;;;;;;26.85;36.48;100703.19;5024734;28;20035;-82
2022/06/06 09:59:31;;;;;;;0.93;0.82;;;;;;;25.30;37.77;100709.00;5000556;28;20060;-82
2022/06/06 10:02:24;;;;;;;1.10;1.10;;;;;;;25.98;35.94;100692.63;5040274;28;20049;-83
2022/06/06 10:06:04;;;;;;;1.27;1.15;;;;;;;26.34;36.00;100690.91;5036066;28;20049;-85
2022/06/06 10:08:57;;;;;;;1.17;1.10;;;;;;;28.02;33.82;100696.63;5019357;28;20077;-82
2022/06/06 10:11:46;;;;;;;1.02;1.02;;;;;;;28.87;31.95;100688.72;5002390;28;20157;-83
2022/06/06 10:15:15;;;;;;;2.25;1.05;;;;;;;27.33;33.24;100696.78;5039928;28;20524;-80
2022/06/06 10:18:33;;;;;;;0.85;0.80;;;;;;;26.67;35.25;100708.94;5026321;28;20046;-81
2022/06/06 10:21:30;;;;;;;0.93;0.93;;;;;;;25.07;36.95;100703.44;4989213;28;20056;-82
2022/06/06 10:24:38;;;;;;;1.15;1.05;;;;;;;23.85;39.41;100716.78;5032059;28;20065;-82
2022/06/06 10:27:30;;;;;;;1.25;1.15;;;;;;;23.09;41.08;100717.94;5016966;28;20057;-83
2022/06/06 10:30:13;;;;;;;1.02;1.02;;;;;;;22.55;42.54;100727.28;5022008;28;20519;-82
2022/06/06 10:33:13;;;;;;;0.93;0.90;;;;;;;22.35;43.17;100719.56;5017701;28;20111;-83
2022/06/06 10:36:13;;;;;;;0.95;0.95;;;;;;;24.33;39.97;100721.78;5035214;28;20049;-84
2022/06/06 10:39:31;;;;;;;0.95;0.95;;;;;;;25.85;36.08;100712.28;5034971;28;20041;-81
2022/06/06 10:42:35;;;;;;;1.15;1.10;;;;;;;25.67;35.80;100722.53;5017196;28;20056;-82
2022/06/06 10:45:32;;;;;;;1.70;1.13;;;;;;;25.53;35.07;100712.78;5006757;28;20118;-81
2022/06/06 10:48:11;;;;;;;0.70;0.70;;;;;;;25.58;34.83;100702.59;5020175;28;20052;-84
2022/06/06 10:51:43;;;;;;;0.80;0.80;;;;;;;26.07;33.79;100702.69;5026829;28;20056;-83
2022/06/06 10:54:56;;;;;;;1.05;0.95;;;;;;;28.32;31.67;100705.84;5018199;28;20049;-82
2022/06/06 10:57:55;;;;;;;0.95;0.93;;;;;;;30.11;28.44;100707.56;5006424;28;20141;-83
2022/06/06 11:00:55;;;;;;;5.13;1.20;;;;;;;31.07;27.01;100693.34;5017191;28;20498;-82
2022/06/06 11:03:57;;;;;;;0.60;0.60;;;;;;;31.17;26.38;100691.47;5019979;28;21998;-81
2022/06/06 11:07:11;;;;;;;1.48;0.65;;;;;;;30.74;26.44;100700.91;5018552;28;20107;-82
2022/06/06 11:10:15;;;;;;;1.45;0.73;;;;;;;30.74;26.55;100690.13;5019630;28;20518;-83
2022/06/06 11:13:24;;;;;;;0.95;0.95;;;;;;;30.55;27.46;100691.84;5018863;28;20062;-82
2022/06/06 11:16:20;;;;;;;2.95;1.33;;;;;;;30.14;27.65;100691.09;5000119;28;20053;-81
2022/06/06 11:19:58;;;;;;;0.73;0.73;;;;;;;29.24;27.91;100680.13;4982652;28;20085;-82
2022/06/06 11:22:39;;;;;;;0.85;0.80;;;;;;;29.65;27.05;100669.41;5013919;28;20522;-82
2022/06/06 11:25:13;;;;;;;0.65;0.63;;;;;;;28.68;28.85;100679.53;4971991;28;20089;-82
2022/06/06 11:28:13;;;;;;;0.52;0.52;;;;;;;29.44;27.62;100677.53;5001480;28;20061;-83
2022/06/06 11:31:12;;;;;;;0.80;0.80;;;;;;;30.85;25.49;100671.03;4989048;28;20677;-82
2022/06/06 11:34:21;;;;;;;0.70;0.70;;;;;;;31.94;24.24;100670.47;5001781;28;20064;-81
2022/06/06 11:37:48;;;;;;;1.17;1.17;;;;;;;33.75;22.38;100672.75;4996834;28;20448;-81
2022/06/06 11:41:11;;;;;;;0.80;0.40;;;;;;;35.01;18.88;100665.41;4998730;28;20054;-81
2022/06/06 11:44:11;;;;;;;0.35;0.10;;;;;;;33.42;20.12;100676.19;4995333;28;20105;-82
2022/06/06 11:47:14;;;;;;;0.50;0.30;;;;;;;33.25;20.63;100679.84;4995543;28;20057;-85
2022/06/06 11:50:10;;;;;;;0.57;0.22;;;;;;;32.70;21.00;100679.13;5015913;28;20103;-84
2022/06/06 11:53:17;;;;;;;1.20;0.60;;;;;;;30.19;24.33;100684.28;5016131;28;20049;-82
2022/06/06 11:56:08;;;;;;;0.73;0.43;;;;;;;29.17;26.14;100690.59;5016326;28;20054;-83
2022/06/06 11:59:02;;;;;;;0.40;0.40;;;;;;;30.78;25.09;100683.41;5020223;28;20408;-82
2022/06/06 12:01:57;;;;;;;0.30;0.30;;;;;;;31.61;23.88;100683.63;5024336;28;20072;-85
2022/06/06 12:05:00;;;;;;;0.90;0.63;;;;;;;32.58;23.10;100683.94;5000550;28;20048;-83
2022/06/06 12:07:59;;;;;;;0.45;0.40;;;;;;;33.48;22.27;100675.56;5019571;28;21560;-82
2022/06/06 12:10:32;;;;;;;0.70;0.70;;;;;;;34.79;21.74;100684.09;5037640;28;20480;-83
2022/06/06 12:13:29;;;;;;;0.50;0.50;;;;;;;33.77;20.99;100658.00;5020036;28;20434;-82
2022/06/06 12:16:20;;;;;;;0.60;0.60;;;;;;;31.60;23.32;100681.03;5035356;28;20049;-82
2022/06/06 12:19:24;;;;;;;0.85;0.50;;;;;;;29.82;25.22;100687.59;5034505;28;20164;-82
2022/06/06 12:22:26;;;;;;;0.52;0.52;;;;;;;29.99;24.22;100687.97;5012745;28;20144;-82
2022/06/06 12:25:48;;;;;;;0.30;0.25;;;;;;;30.80;22.74;100668.75;5018463;28;20042;-84
2022/06/06 12:29:00;;;;;;;0.60;0.60;;;;;;;31.58;23.29;100661.41;5010295;28;20049;-83
2022/06/06 12:31:44;;;;;;;1.50;0.40;;;;;;;32.25;22.99;100664.69;5038085;28;20038;-82
2022/06/06 12:34:19;;;;;;;1.52;0.47;;;;;;;33.34;22.10;100654.47;5006494;28;20049;-83
2022/06/06 12:36:58;;;;;;;0.65;0.65;;;;;;;34.54;21.21;100656.09;5021003;28;20134;-81
2022/06/06 12:40:03;;;;;;;11.70;0.70;;;;;;;34.63;20.68;100653.19;5035778;28;20061;-83
2022/06/06 12:42:51;;;;;;;1.40;0.40;;;;;;;32.29;22.16;100659.81;5029727;28;20046;-81
2022/06/06 12:46:12;;;;;;;0.50;0.50;;;;;;;30.10;24.79;100657.28;5023044;28;20049;-83
2022/06/06 12:49:52;;;;;;;1.38;0.50;;;;;;;30.24;25.45;100667.66;4999046;28;20046;-85
2022/06/06 12:52:47;;;;;;;0.65;0.40;;;;;;;31.79;22.19;100644.94;4968406;28;20046;-83
2022/06/06 12:55:44;;;;;;;0.45;0.28;;;;;;;32.12;21.99;100619.03;5022804;28;20064;-82
2022/06/06 12:58:44;;;;;;;0.40;0.40;;;;;;;33.03;21.05;100635.97;5006413;28;20081;-82
2022/06/06 13:01:59;;;;;;;0.28;0.25;;;;;;;32.46;20.89;100631.88;5011118;28;20053;-81
2022/06/06 13:05:04;;;;;;;0.30;0.30;;;;;;;30.05;23.41;100643.34;5000254;28;20085;-83
2022/06/06 13:07:48;;;;;;;0.50;0.50;;;;;;;29.76;24.33;100649.53;5019121;28;20053;-81
2022/06/06 13:10:27;;;;;;;0.52;0.40;;;;;;;28.78;25.28;100636.47;5040012;28;20052;-84
2022/06/06 13:13:34;;;;;;;1.77;0.30;;;;;;;27.38;27.53;100648.94;5035196;28;20111;-82